LSZB Airport Information

Runway Information
Runway 14 Length 4954 ft width 98 ft
Elevation 1668 ft Threshold 656 ft Heading 140
Runway 32 Length 4954 ft Width 98 ft
Elevation 1674 ft Threshold 360 ft Heading 320
Runway 14L Length 2133 ft width 98 ft
Elevation 0 ft Threshold 0 ft Heading 140
Runway 32R Length 2133 ft Width 98 ft
Elevation 0 ft Threshold 0 ft Heading 320
Runway 14R Length 2125 ft width 98 ft
Elevation 0 ft Threshold 0 ft Heading 140
Runway 32L Length 2125 ft Width 98 ft
Elevation 0 ft Threshold 0 ft Heading 320
Airport Frequencies
Type A/D Name APP/DEP Frequency 127.325 MHZ
Type ATIS Name ATIS Frequency 125.125 MHZ
Type MISC Name GLIDER Frequency 123.4 MHZ
Type OPS Name ALPAR Frequency 135.75 MHZ
Type TWR Name TWR Frequency 121.025 MHZ
Airport Navaids
Type NDB Name Bern Frequency 335 KHZ
Type NDB Name Muri Frequency 312 KHZ
Type NDB Name Schupberg Frequency 357 KHZ
Airport Weather Information & NOTAM
ADDS - METARS form results

(2124 UTC 21 July 2018)
 
METAR text: LSZB 212120Z AUTO 16007KT 9999 BKN039 SCT048 BKN070 18/16 Q1016
Conditions at: LSZB (BERN/BELP , CH) observed 2120 UTC 21 July 2018
Temperature: 18.0°C (64°F)
Dewpoint: 16.0°C (61°F) [RH = 88%]
Pressure (altimeter): 30.00 inches Hg (1016.0 mb)
Winds: from the SSE (160 degrees) at 8 MPH (7 knots; 3.6 m/s)
Visibility: 6 or more miles (10+ km)
Ceiling: 3900 feet AGL
Clouds: broken clouds at 3900 feet AGL
scattered clouds at 4800 feet AGL
broken clouds at 7000 feet AGL
Weather: no significant weather observed at this time

METAR text: LSZB 212050Z AUTO 16007KT 9999 FEW043 BKN070 BKN090 18/16 Q1016
Conditions at: LSZB (BERN/BELP , CH) observed 2050 UTC 21 July 2018
Temperature: 18.0°C (64°F)
Dewpoint: 16.0°C (61°F) [RH = 88%]
Pressure (altimeter): 30.00 inches Hg (1016.0 mb)
Winds: from the SSE (160 degrees) at 8 MPH (7 knots; 3.6 m/s)
Visibility: 6 or more miles (10+ km)
Ceiling: 7000 feet AGL
Clouds: few clouds at 4300 feet AGL
broken clouds at 7000 feet AGL
broken clouds at 9000 feet AGL
Weather: no significant weather observed at this time